Brewerton, New York
Current Conditions -  °F | °C
As of 3:54 AM on Saturday 25 Oct 2014 (Local Time) from KSYR Reporting Station
Broken Clouds Broken Clouds  
Wind Chill: 44°   Ceiling: 6500
Heat Index: 47°   Visibility: 8mi
Dew Point: 43°   Wind: 7mph
Humidity: 86%   Direction: 240°WSW
Pressure: 29.87"   Gusts: NA
Location:  43.24°N, 76.14°W
Report Text: KSYR 250754Z 24006KT 8SM BKN065 08/06 A2987 RMK AO2 SLP112 T00830061
Loading
Personal Weather Stations






























Interactive Weather Map
Tropical Storm Tracking
New forecast layout! Learn more

10-Day Weather Forecast

Advertisements
Track Severe Weather on mobile